createdAt,value
2023-03-17T00:00:43.853Z,4.17
2023-03-17T00:03:13.800Z,3.63
2023-03-17T00:05:42.080Z,3.40
2023-03-17T00:08:13.278Z,5.27
2023-03-17T00:10:41.447Z,3.67
2023-03-17T00:13:12.683Z,4.60
2023-03-17T00:15:41.036Z,3.43
2023-03-17T00:18:13.803Z,2.93
2023-03-17T00:20:42.221Z,4.33
2023-03-17T00:23:14.760Z,3.80
2023-03-17T00:25:43.332Z,4.37
2023-03-17T00:28:15.022Z,4.57
2023-03-17T00:30:43.245Z,4.90
2023-03-17T00:33:13.456Z,5.00
2023-03-17T00:35:41.853Z,3.13
2023-03-17T00:38:13.168Z,5.63
2023-03-17T00:40:41.390Z,4.17
2023-03-17T00:43:09.611Z,3.43
2023-03-17T00:45:38.573Z,3.20
2023-03-17T00:48:08.590Z,4.43
2023-03-17T00:50:38.497Z,4.23
2023-03-17T00:53:08.595Z,4.60
2023-03-17T00:55:37.135Z,4.97
2023-03-17T00:58:12.414Z,3.83
2023-03-17T01:00:40.696Z,5.37
2023-03-17T01:03:11.226Z,4.20
2023-03-17T01:05:41.395Z,4.37
2023-03-17T01:08:10.378Z,2.90
2023-03-17T01:10:38.549Z,3.33
2023-03-17T01:13:07.288Z,3.83
2023-03-17T01:15:36.173Z,4.10
2023-03-17T01:18:04.354Z,5.87
2023-03-17T01:20:34.440Z,3.27
2023-03-17T01:23:04.063Z,2.90
2023-03-17T01:25:32.598Z,3.60
2023-03-17T01:28:01.043Z,3.10
2023-03-17T01:30:30.334Z,5.77
2023-03-17T01:32:59.082Z,3.83
2023-03-17T01:35:29.337Z,6.43
2023-03-17T01:37:58.156Z,3.67
2023-03-17T01:40:29.538Z,3.40
2023-03-17T01:43:01.776Z,5.30
2023-03-17T01:45:49.028Z,3.50
2023-03-17T01:48:17.909Z,3.83
2023-03-17T01:50:48.422Z,3.47
2023-03-17T01:53:16.991Z,2.73
2023-03-17T01:55:47.121Z,3.40
2023-03-17T01:58:17.029Z,3.60
2023-03-17T02:00:46.525Z,5.27
2023-03-17T02:03:15.653Z,3.00
2023-03-17T02:05:44.136Z,5.07
2023-03-17T02:08:13.223Z,3.90
2023-03-17T02:10:42.129Z,3.30
2023-03-17T02:13:12.302Z,3.80
2023-03-17T02:15:41.611Z,3.73
2023-03-17T02:18:11.571Z,4.37
2023-03-17T02:20:58.607Z,4.17
2023-03-17T02:23:28.212Z,2.73
2023-03-17T02:25:56.392Z,3.83
2023-03-17T02:28:27.279Z,4.33
2023-03-17T02:30:55.544Z,3.13
2023-03-17T02:33:23.959Z,4.77
2023-03-17T02:35:52.904Z,2.80
2023-03-17T02:38:21.863Z,3.57
2023-03-17T02:40:51.453Z,3.13
2023-03-17T02:43:19.583Z,3.80
2023-03-17T02:45:47.806Z,3.00
2023-03-17T02:48:16.346Z,3.40
2023-03-17T02:50:44.494Z,4.70
2023-03-17T02:53:13.032Z,3.83
2023-03-17T02:55:42.003Z,3.57
2023-03-17T02:58:11.647Z,3.43
2023-03-17T03:00:40.804Z,3.33
2023-03-17T03:03:09.322Z,3.00
2023-03-17T03:05:37.568Z,5.77
2023-03-17T03:08:05.970Z,3.93
2023-03-17T03:10:34.171Z,3.47
2023-03-17T03:13:03.084Z,3.70
2023-03-17T03:15:32.688Z,3.07
2023-03-17T03:18:00.838Z,3.93
2023-03-17T03:20:29.351Z,3.33
2023-03-17T03:22:57.719Z,3.90
2023-03-17T03:25:25.944Z,4.13
2023-03-17T03:27:54.308Z,3.03
2023-03-17T03:30:22.552Z,3.23
2023-03-17T03:32:52.094Z,3.47
2023-03-17T03:35:20.490Z,2.80
2023-03-17T03:37:48.717Z,3.77
2023-03-17T03:40:17.062Z,5.83
2023-03-17T03:42:45.279Z,3.50
2023-03-17T03:45:13.482Z,3.40
2023-03-17T03:47:41.601Z,3.10
2023-03-17T03:50:12.001Z,2.90
2023-03-17T03:52:40.135Z,3.87
2023-03-17T03:55:09.041Z,2.97
2023-03-17T03:57:37.235Z,3.90
2023-03-17T04:00:07.450Z,3.47
2023-03-17T04:02:35.927Z,5.60
2023-03-17T04:05:04.495Z,5.83
2023-03-17T04:07:34.034Z,3.10
2023-03-17T04:10:02.303Z,4.00
2023-03-17T04:12:30.710Z,5.60
2023-03-17T04:14:58.970Z,4.13
2023-03-17T04:17:27.222Z,4.43
2023-03-17T04:19:55.420Z,3.63
2023-03-17T04:22:23.866Z,3.37
2023-03-17T04:24:53.470Z,4.10
2023-03-17T04:27:21.829Z,4.63
2023-03-17T04:29:50.082Z,4.57
2023-03-17T04:32:18.575Z,4.03
2023-03-17T04:34:46.838Z,2.60
2023-03-17T04:37:15.709Z,3.83
2023-03-17T04:39:43.897Z,4.73
2023-03-17T04:42:13.708Z,4.67
2023-03-17T04:44:43.022Z,3.90
2023-03-17T04:47:11.477Z,4.23
2023-03-17T04:49:39.743Z,3.23
2023-03-17T04:52:08.612Z,4.20
2023-03-17T04:54:37.240Z,3.50
2023-03-17T04:57:05.565Z,2.83
2023-03-17T04:59:35.117Z,4.30
2023-03-17T05:02:03.308Z,3.03
2023-03-17T05:04:32.448Z,3.93
2023-03-17T05:07:00.714Z,2.90
2023-03-17T05:09:29.404Z,3.67
2023-03-17T05:11:57.681Z,3.13
2023-03-17T05:14:25.813Z,3.57
2023-03-17T05:16:55.407Z,3.10
2023-03-17T05:19:23.650Z,5.03
2023-03-17T05:21:52.292Z,4.90
2023-03-17T05:24:20.503Z,3.97
2023-03-17T05:26:48.649Z,3.57
2023-03-17T05:29:17.007Z,4.57
2023-03-17T05:31:45.151Z,4.40
2023-03-17T05:34:15.255Z,4.03
2023-03-17T05:36:43.573Z,4.30
2023-03-17T05:39:14.359Z,4.53
2023-03-17T05:41:42.681Z,5.47
2023-03-17T05:44:10.831Z,2.90
2023-03-17T05:46:39.021Z,4.07
2023-03-17T05:49:07.882Z,5.83
2023-03-17T05:51:37.445Z,2.77
2023-03-17T05:54:05.744Z,3.50
2023-03-17T05:56:34.227Z,4.77
2023-03-17T05:59:02.571Z,6.77
2023-03-17T06:01:31.385Z,6.97
2023-03-17T06:04:00.992Z,3.37
2023-03-17T06:06:29.316Z,3.67
2023-03-17T06:08:58.907Z,4.10
2023-03-17T06:11:27.154Z,7.50
2023-03-17T06:13:55.387Z,4.17
2023-03-17T06:16:23.914Z,3.93
2023-03-17T06:18:52.248Z,3.37
2023-03-17T06:21:21.118Z,4.27
2023-03-17T06:23:49.297Z,4.80
2023-03-17T06:26:18.829Z,4.07
2023-03-17T06:28:47.049Z,4.67
2023-03-17T06:31:15.566Z,6.70
2023-03-17T06:33:43.822Z,3.97
2023-03-17T06:36:12.345Z,7.10
2023-03-17T06:38:40.587Z,4.50
2023-03-17T06:41:09.088Z,5.97
2023-03-17T06:43:38.675Z,8.40
2023-03-17T06:46:07.497Z,5.73
2023-03-17T06:48:35.777Z,4.23
2023-03-17T06:51:04.002Z,6.23
2023-03-17T06:53:32.369Z,4.13
2023-03-17T06:56:00.542Z,4.27
2023-03-17T06:58:28.713Z,5.50
2023-03-17T07:00:58.638Z,6.03
2023-03-17T07:03:26.960Z,5.30
2023-03-17T07:05:55.256Z,8.00
2023-03-17T07:08:23.412Z,5.03
2023-03-17T07:10:51.846Z,5.97
2023-03-17T07:13:20.940Z,3.57
2023-03-17T07:15:49.956Z,7.87
2023-03-17T07:18:19.762Z,5.33
2023-03-17T07:20:48.049Z,8.37
2023-03-17T07:23:16.838Z,4.93
2023-03-17T07:25:47.182Z,6.90
2023-03-17T07:28:15.697Z,5.47
2023-03-17T07:30:46.859Z,6.90
2023-03-17T07:33:15.804Z,9.00
2023-03-17T07:35:45.588Z,6.27
2023-03-17T07:38:13.750Z,6.67
2023-03-17T07:40:42.150Z,5.33
2023-03-17T07:43:10.352Z,3.70
2023-03-17T07:45:38.619Z,5.80
2023-03-17T07:48:08.435Z,5.40
2023-03-17T07:50:36.794Z,5.10
2023-03-17T07:53:06.388Z,5.47
2023-03-17T07:55:35.666Z,6.00
2023-03-17T07:58:04.046Z,4.10
2023-03-17T08:00:32.522Z,5.97
2023-03-17T08:03:09.704Z,8.13
2023-03-17T08:05:38.680Z,6.30
2023-03-17T08:08:08.413Z,5.20
2023-03-17T08:10:36.671Z,5.10
2023-03-17T08:13:04.901Z,6.73
2023-03-17T08:15:33.089Z,5.63
2023-03-17T08:18:01.804Z,7.47
2023-03-17T08:20:30.330Z,7.50
2023-03-17T08:22:58.846Z,7.80
2023-03-17T08:25:29.532Z,7.47
2023-03-17T08:27:57.742Z,7.70
2023-03-17T08:30:26.034Z,6.73
2023-03-17T08:32:54.655Z,5.50
2023-03-17T08:35:22.934Z,5.40
2023-03-17T08:37:51.606Z,6.53
2023-03-17T08:40:21.081Z,6.67
2023-03-17T08:42:51.098Z,5.93
2023-03-17T08:45:19.453Z,8.03
2023-03-17T08:47:47.899Z,7.57
2023-03-17T08:50:18.161Z,6.13
2023-03-17T08:52:46.660Z,7.00
2023-03-17T08:55:15.734Z,7.40
2023-03-17T08:57:44.763Z,6.67
2023-03-17T09:00:16.120Z,9.20
2023-03-17T09:02:45.103Z,7.80
2023-03-17T09:05:14.748Z,9.13
2023-03-17T09:07:43.565Z,5.80
2023-03-17T09:10:13.614Z,7.20
2023-03-17T09:12:42.821Z,6.10
2023-03-17T09:15:11.989Z,7.83
2023-03-17T09:17:43.681Z,7.63
2023-03-17T09:20:13.740Z,7.40
2023-03-17T09:22:42.016Z,7.70
2023-03-17T09:25:10.997Z,8.73
2023-03-17T09:27:39.115Z,7.20
2023-03-17T09:30:07.810Z,7.20
2023-03-17T09:32:36.063Z,6.40
2023-03-17T09:35:06.196Z,8.73
2023-03-17T09:37:35.036Z,6.53
2023-03-17T09:40:07.860Z,5.83
2023-03-17T09:42:40.998Z,6.60
2023-03-17T09:45:15.151Z,7.60
2023-03-17T09:48:04.761Z,8.47
2023-03-17T09:50:39.778Z,6.83
2023-03-17T09:53:14.616Z,9.70
2023-03-17T09:55:42.941Z,6.03
2023-03-17T09:58:11.690Z,8.37
2023-03-17T10:00:40.262Z,7.50
2023-03-17T10:03:12.850Z,5.77
2023-03-17T10:05:42.414Z,6.37
2023-03-17T10:08:29.530Z,8.20
2023-03-17T10:11:01.763Z,6.63
2023-03-17T10:13:34.052Z,8.30
2023-03-17T10:16:04.118Z,7.23
2023-03-17T10:18:35.256Z,4.57
2023-03-17T10:21:06.154Z,6.20
2023-03-17T10:23:35.647Z,7.00
2023-03-17T10:26:08.047Z,7.83
2023-03-17T10:28:39.124Z,7.43
2023-03-17T10:31:15.528Z,8.17
2023-03-17T10:33:43.771Z,6.83
2023-03-17T10:36:16.615Z,5.43
2023-03-17T10:38:51.975Z,7.30
2023-03-17T10:41:20.260Z,6.37
2023-03-17T10:43:50.608Z,5.80
2023-03-17T10:46:21.498Z,6.57
2023-03-17T10:48:53.959Z,7.00
2023-03-17T10:51:30.601Z,7.10
2023-03-17T10:54:01.275Z,5.73
2023-03-17T10:56:31.131Z,7.93
2023-03-17T10:59:05.706Z,6.63
2023-03-17T11:01:38.428Z,6.43
2023-03-17T11:04:21.759Z,9.87
2023-03-17T11:06:52.470Z,7.23
2023-03-17T11:09:22.209Z,5.13
2023-03-17T11:11:51.153Z,8.97
2023-03-17T11:14:20.181Z,7.80
2023-03-17T11:16:54.354Z,6.33
2023-03-17T11:19:25.187Z,10.13
2023-03-17T11:21:57.113Z,8.23
2023-03-17T11:24:27.313Z,7.97
2023-03-17T11:26:59.855Z,6.63
2023-03-17T11:29:33.844Z,7.67
2023-03-17T11:32:09.455Z,10.53
2023-03-17T11:34:48.078Z,7.53
2023-03-17T11:37:23.410Z,10.67
2023-03-17T11:39:54.990Z,9.20
2023-03-17T11:42:25.824Z,9.40
2023-03-17T11:45:04.786Z,8.73
2023-03-17T11:47:39.954Z,6.27
2023-03-17T11:50:13.222Z,9.53
2023-03-17T11:52:47.598Z,9.57
2023-03-17T11:55:18.934Z,8.80
2023-03-17T11:57:50.015Z,7.80
2023-03-17T12:00:22.619Z,10.13
2023-03-17T12:02:53.726Z,8.83
2023-03-17T12:05:24.066Z,6.53
2023-03-17T12:07:55.322Z,7.67
2023-03-17T12:10:25.512Z,9.53
2023-03-17T12:12:56.946Z,8.23
2023-03-17T12:15:29.287Z,9.53
2023-03-17T12:17:58.731Z,9.13
2023-03-17T12:20:31.593Z,7.53
2023-03-17T12:23:04.312Z,9.93
2023-03-17T12:25:33.788Z,7.77
2023-03-17T12:28:03.898Z,8.47
2023-03-17T12:30:35.292Z,10.17
2023-03-17T12:33:12.499Z,9.63
2023-03-17T12:35:40.770Z,8.17
2023-03-17T12:38:12.844Z,8.97
2023-03-17T12:40:49.682Z,7.90
2023-03-17T12:43:25.631Z,9.00
2023-03-17T12:46:01.134Z,8.47
2023-03-17T12:48:47.175Z,8.60
2023-03-17T12:51:25.874Z,10.17
2023-03-17T12:53:55.555Z,7.57
2023-03-17T12:56:26.055Z,8.63
2023-03-17T12:58:55.788Z,8.87
2023-03-17T13:01:27.103Z,8.93
2023-03-17T13:04:01.995Z,7.50
2023-03-17T13:06:32.220Z,8.13
2023-03-17T13:09:21.865Z,7.83
2023-03-17T13:11:51.477Z,9.07
2023-03-17T13:14:27.040Z,8.37
2023-03-17T13:17:04.485Z,8.83
2023-03-17T13:19:33.482Z,9.47
2023-03-17T13:22:16.557Z,7.03
2023-03-17T13:24:51.128Z,12.73
2023-03-17T13:27:34.180Z,9.93
2023-03-17T13:30:25.773Z,8.00
2023-03-17T13:32:57.404Z,8.87
2023-03-17T13:35:38.849Z,8.70
2023-03-17T13:38:14.471Z,7.27
2023-03-17T13:40:47.795Z,7.83
2023-03-17T13:43:23.852Z,7.10
2023-03-17T13:45:53.954Z,8.87
2023-03-17T13:48:33.053Z,7.00
2023-03-17T13:51:03.165Z,7.27
2023-03-17T13:53:34.060Z,10.80
2023-03-17T13:56:20.328Z,8.33
2023-03-17T13:58:58.974Z,9.27
2023-03-17T14:01:30.104Z,9.43
2023-03-17T14:03:58.566Z,6.30
2023-03-17T14:06:31.246Z,7.07
2023-03-17T14:09:02.342Z,10.20
2023-03-17T14:11:34.002Z,8.17
2023-03-17T14:14:32.064Z,9.83
2023-03-17T14:17:06.122Z,8.57
2023-03-17T14:19:34.814Z,8.17
2023-03-17T14:22:19.605Z,6.23
2023-03-17T14:24:47.865Z,6.90
2023-03-17T14:27:16.327Z,7.97
2023-03-17T14:29:44.570Z,6.60
2023-03-17T14:32:16.087Z,6.57
2023-03-17T14:34:44.653Z,5.20
2023-03-17T14:37:13.378Z,6.80
2023-03-17T14:39:46.310Z,8.17
2023-03-17T14:42:14.459Z,7.90
2023-03-17T14:44:43.145Z,6.33
2023-03-17T14:47:18.099Z,7.53
2023-03-17T14:49:46.450Z,9.07
2023-03-17T14:52:21.404Z,5.80
2023-03-17T14:54:53.493Z,6.80
2023-03-17T14:57:23.752Z,8.77
2023-03-17T14:59:59.553Z,6.80
2023-03-17T15:02:34.160Z,7.27
2023-03-17T15:05:07.911Z,8.83
2023-03-17T15:07:39.326Z,8.00
2023-03-17T15:10:08.338Z,5.20
2023-03-17T15:12:36.568Z,7.83
2023-03-17T15:15:07.578Z,7.50
2023-03-17T15:17:37.948Z,8.47
2023-03-17T15:20:07.649Z,6.17
2023-03-17T15:22:42.444Z,7.33
2023-03-17T15:25:20.922Z,7.37
2023-03-17T15:27:49.678Z,8.83
2023-03-17T15:30:18.500Z,9.73
2023-03-17T15:32:52.742Z,6.60
2023-03-17T15:35:20.992Z,8.68
2023-03-17T15:37:49.135Z,8.97
2023-03-17T15:40:17.500Z,9.50
2023-03-17T15:42:46.334Z,9.70
2023-03-17T15:45:16.260Z,7.53
2023-03-17T15:47:46.952Z,9.63
2023-03-17T15:50:18.283Z,6.63
2023-03-17T15:52:46.696Z,9.90
2023-03-17T15:55:19.997Z,8.25
2023-03-17T15:57:54.745Z,9.07
2023-03-17T16:00:24.584Z,11.97
2023-03-17T16:02:54.146Z,9.63
2023-03-17T16:05:24.477Z,9.17
2023-03-17T16:07:53.431Z,12.03
2023-03-17T16:10:22.716Z,6.87
2023-03-17T16:12:51.363Z,11.53
2023-03-17T16:15:23.419Z,8.13
2023-03-17T16:17:53.839Z,9.40
2023-03-17T16:20:24.946Z,9.93
2023-03-17T16:22:54.306Z,7.90
2023-03-17T16:25:24.847Z,9.50
2023-03-17T16:27:54.065Z,8.60
2023-03-17T16:30:23.332Z,12.13
2023-03-17T16:32:51.728Z,8.20
2023-03-17T16:35:20.744Z,8.10
2023-03-17T16:37:52.243Z,11.17
2023-03-17T16:40:21.846Z,10.27
2023-03-17T16:42:50.293Z,11.73
2023-03-17T16:45:22.321Z,9.52
2023-03-17T16:47:50.568Z,9.87
2023-03-17T16:50:20.231Z,12.07
2023-03-17T16:52:49.896Z,11.27
2023-03-17T16:55:18.831Z,10.80
2023-03-17T16:57:48.064Z,11.67
2023-03-17T17:00:17.343Z,10.47
2023-03-17T17:02:47.432Z,12.77
2023-03-17T17:05:18.296Z,8.77
2023-03-17T17:07:46.693Z,9.90
2023-03-17T17:10:17.237Z,11.47
2023-03-17T17:12:45.436Z,10.53
2023-03-17T17:15:14.769Z,11.73
2023-03-17T17:17:44.037Z,10.97
2023-03-17T17:20:16.203Z,9.80
2023-03-17T17:22:44.374Z,10.93
2023-03-17T17:25:12.678Z,11.03
2023-03-17T17:27:43.187Z,12.03
2023-03-17T17:30:13.326Z,12.53
2023-03-17T17:32:41.682Z,15.53
2023-03-17T17:35:11.691Z,13.23
2023-03-17T17:37:40.199Z,12.90
2023-03-17T17:40:09.699Z,12.20
2023-03-17T17:42:37.921Z,15.33
2023-03-17T17:45:08.384Z,9.47
2023-03-17T17:47:36.561Z,11.83
2023-03-17T17:50:04.798Z,10.00
2023-03-17T17:52:32.983Z,13.57
2023-03-17T17:55:01.923Z,14.77
2023-03-17T17:57:30.120Z,11.10
2023-03-17T17:59:58.336Z,10.37
2023-03-17T18:02:27.901Z,13.87
2023-03-17T18:04:56.209Z,11.03
2023-03-17T18:07:24.382Z,12.70
2023-03-17T18:09:52.508Z,12.03
2023-03-17T18:12:20.648Z,10.33
2023-03-17T18:14:48.798Z,12.77
2023-03-17T18:17:21.622Z,11.83
2023-03-17T18:19:52.965Z,11.13
2023-03-17T18:22:21.496Z,11.77
2023-03-17T18:24:49.720Z,13.53
2023-03-17T18:27:18.176Z,12.67
2023-03-17T18:29:47.307Z,10.63
2023-03-17T18:32:15.779Z,7.93
2023-03-17T18:34:45.837Z,11.37
2023-03-17T18:37:16.325Z,10.03
2023-03-17T18:39:48.436Z,12.00
2023-03-17T18:42:21.282Z,11.07
2023-03-17T18:44:49.681Z,9.17
2023-03-17T18:47:17.880Z,8.37
2023-03-17T18:49:47.221Z,10.33
2023-03-17T18:52:17.416Z,11.63
2023-03-17T18:54:46.015Z,9.20
2023-03-17T18:57:14.170Z,7.80
2023-03-17T18:59:42.345Z,7.50
2023-03-17T19:02:10.559Z,10.17
2023-03-17T19:04:43.226Z,8.00
2023-03-17T19:07:11.441Z,13.23
2023-03-17T19:09:41.116Z,8.57
2023-03-17T19:12:09.917Z,10.00
2023-03-17T19:14:39.880Z,8.50
2023-03-17T19:17:08.750Z,9.37
2023-03-17T19:19:36.956Z,8.57
2023-03-17T19:22:06.158Z,7.10
2023-03-17T19:24:37.827Z,11.77
2023-03-17T19:27:07.330Z,9.13
2023-03-17T19:29:35.546Z,9.40
2023-03-17T19:32:03.874Z,8.83
2023-03-17T19:34:32.014Z,10.23
2023-03-17T19:37:02.515Z,8.83
2023-03-17T19:39:33.471Z,7.80
2023-03-17T19:42:01.844Z,9.90
2023-03-17T19:44:31.405Z,11.40
2023-03-17T19:47:01.574Z,7.33
2023-03-17T19:49:29.865Z,8.40
2023-03-17T19:51:58.061Z,9.70
2023-03-17T19:54:26.175Z,8.30
2023-03-17T19:56:54.352Z,10.87
2023-03-17T19:59:22.980Z,9.30
2023-03-17T20:01:52.647Z,10.00
2023-03-17T20:04:22.942Z,9.33
2023-03-17T20:06:55.437Z,12.90
2023-03-17T20:09:25.287Z,10.93
2023-03-17T20:11:54.324Z,10.13
2023-03-17T20:14:22.540Z,11.80
2023-03-17T20:16:51.835Z,12.70
2023-03-17T20:19:21.405Z,10.37
2023-03-17T20:21:49.779Z,10.93
2023-03-17T20:24:17.978Z,10.17
2023-03-17T20:26:48.791Z,11.30
2023-03-17T20:29:17.583Z,9.23
2023-03-17T20:31:45.882Z,10.53
2023-03-17T20:34:14.058Z,12.50
2023-03-17T20:36:43.578Z,14.70
2023-03-17T20:39:14.907Z,13.07
2023-03-17T20:41:43.070Z,9.37
2023-03-17T20:44:11.230Z,10.30
2023-03-17T20:46:39.839Z,12.20
2023-03-17T20:49:09.078Z,12.03
2023-03-17T20:51:37.748Z,15.10
2023-03-17T20:54:08.564Z,11.07
2023-03-17T20:56:37.362Z,11.67
2023-03-17T20:59:06.234Z,14.20
2023-03-17T21:01:35.581Z,12.57
2023-03-17T21:04:05.724Z,13.23
2023-03-17T21:06:34.251Z,12.97
2023-03-17T21:09:02.618Z,13.03
2023-03-17T21:11:32.288Z,11.00
2023-03-17T21:14:01.723Z,12.17
2023-03-17T21:16:30.195Z,10.90
2023-03-17T21:18:58.825Z,13.23
2023-03-17T21:21:27.232Z,12.43
2023-03-17T21:23:55.648Z,10.87
2023-03-17T21:26:24.571Z,12.57
2023-03-17T21:28:55.298Z,11.90
2023-03-17T21:31:23.597Z,9.77
2023-03-17T21:33:51.799Z,13.17
2023-03-17T21:36:20.832Z,12.30
2023-03-17T21:38:48.982Z,11.93
2023-03-17T21:41:21.218Z,11.00
2023-03-17T21:43:49.388Z,10.97
2023-03-17T21:46:18.930Z,10.13
2023-03-17T21:48:47.119Z,13.00
2023-03-17T21:51:15.275Z,13.90
2023-03-17T21:53:43.484Z,12.37
2023-03-17T21:56:12.696Z,11.30
2023-03-17T21:58:40.903Z,10.93
2023-03-17T22:01:09.407Z,12.80
2023-03-17T22:03:39.913Z,13.10
2023-03-17T22:06:08.625Z,13.17
2023-03-17T22:08:37.027Z,12.17
2023-03-17T22:11:08.268Z,12.03
2023-03-17T22:13:36.480Z,14.37
2023-03-17T22:16:05.196Z,14.13
2023-03-17T22:18:33.375Z,12.17
2023-03-17T22:21:02.890Z,13.80
2023-03-17T22:23:31.060Z,11.37
2023-03-17T22:25:59.252Z,16.07
2023-03-17T22:28:27.786Z,13.23
2023-03-17T22:30:56.075Z,15.67
2023-03-17T22:33:24.274Z,12.20
2023-03-17T22:35:52.518Z,12.77
2023-03-17T22:38:24.772Z,16.80
2023-03-17T22:41:01.456Z,14.67
2023-03-17T22:43:29.640Z,14.30
2023-03-17T22:45:57.859Z,15.40
2023-03-17T22:48:26.256Z,15.53
2023-03-17T22:50:54.419Z,14.30
2023-03-17T22:53:23.971Z,17.10
2023-03-17T22:55:52.122Z,13.93
2023-03-17T22:58:20.327Z,15.17
2023-03-17T23:00:48.597Z,13.10
2023-03-17T23:03:17.260Z,19.80
2023-03-17T23:05:46.711Z,14.27
2023-03-17T23:08:14.901Z,12.40
2023-03-17T23:10:44.596Z,16.80
2023-03-17T23:13:12.852Z,14.57
2023-03-17T23:15:41.580Z,14.30
2023-03-17T23:18:10.310Z,14.80
2023-03-17T23:20:39.878Z,15.20
2023-03-17T23:23:08.539Z,19.00
2023-03-17T23:25:38.219Z,16.13
2023-03-17T23:28:08.365Z,16.87
2023-03-17T23:30:36.689Z,14.87
2023-03-17T23:33:06.055Z,14.63
2023-03-17T23:35:35.517Z,16.87
2023-03-17T23:38:04.288Z,16.97
2023-03-17T23:40:34.279Z,16.93
2023-03-17T23:43:02.752Z,18.27
2023-03-17T23:45:33.695Z,14.83
2023-03-17T23:48:02.926Z,17.07
2023-03-17T23:50:32.372Z,17.50
2023-03-17T23:53:01.289Z,17.83
2023-03-17T23:55:29.639Z,18.73
2023-03-17T23:57:57.924Z,16.23
